Flight Track Log - Related Links

Times and Time Zones

All times are in EDT time to prevent confusion due to time zone crossing. See the SWA580 flight status page for this flight to view local times or setup timezone preferences in your user account.

Time Position Orientation Groundspeed Altitude Reporting Facility
EDT Latitude Longitude Course Direction KTS MPH feet Rate Location/Type
Fri 09:40:00 AM 38.7333 -121.6000 78° East 178 205 1,600  Level Northern Cal TRACON
Fri 09:41:00 AM 38.7667 -121.5500 49° Northeast 228 262 3,700 2,550 Climbing Northern Cal TRACON
Fri 09:42:00 AM 38.7333 -121.4667 117° Southeast 270 311 6,700 2,844 Climbing Northern Cal TRACON
Fri 09:43:34 AM 38.7275 -121.3225 93° East 286 329 11,000 2,961 Climbing Oakland Center
Fri 09:44:34 AM 38.7231 -121.1983 93° East 336 387 14,300 3,074 Climbing Oakland Center
Fri 09:45:00 AM 38.5759 -120.8620 78° East  Level FlightAware Approximate
Fri 09:45:35 AM 38.7375 -121.0678 82° East 365 420 17,200  Level Oakland Center
Fri 09:46:36 AM 38.7508 -120.9336 83° East 375 432 19,800 2,607 Climbing Oakland Center
Fri 09:47:37 AM 38.7644 -120.7942 83° East 389 448 22,500 2,459 Climbing Oakland Center
Fri 09:48:38 AM 38.7792 -120.6514 82° East 400 460 24,800 2,115 Climbing Oakland Center
Fri 09:49:39 AM 38.7939 -120.5039 83° East 412 474 26,800 2,410 Climbing Oakland Center
Fri 09:50:40 AM 38.8078 -120.3569 83° East 414 476 29,700 1,918 Climbing Oakland Center
Fri 09:51:41 AM 38.8214 -120.2114 83° East 412 474 30,700 1,082 Climbing Oakland Center
Fri 09:52:42 AM 38.8389 -120.0558 82° East 433 498 31,900 1,537 Climbing Oakland Center
Fri 09:53:42 AM 38.8553 -119.8992 82° East 440 506 33,800 1,983 Climbing Oakland Center
Fri 09:54:43 AM 38.8678 -119.7153 85° East 436 502 35,900 1,574 Climbing Oakland Center
Fri 09:55:44 AM 38.8819 -119.5653 83° East 427 491 37,000 836 Climbing Oakland Center
Fri 09:56:45 AM 38.8967 -119.4097 83° East 440 506 37,600 689 Climbing Oakland Center
Fri 09:57:46 AM 38.9092 -119.2508 84° East 448 516 38,400 689 Climbing Oakland Center
Fri 09:58:47 AM 38.9217 -119.0928 84° East 448 516 39,000 295 Climbing Oakland Center
Fri 09:59:48 AM 38.9358 -118.9369 83° East 444 511 39,000  Level Oakland Center
Fri 10:00:49 AM 38.9494 -118.7792 84° East 448 516 39,000  Level Oakland Center
Fri 10:01:50 AM 38.9617 -118.6233 84° East 444 511 39,000  Level Oakland Center
Fri 10:02:51 AM 38.9750 -118.4669 84° East 443 510 39,000  Level Oakland Center
Fri 10:03:52 AM 38.9897 -118.2794 84° East 443 510 39,000  Level Oakland Center
Fri 10:04:53 AM 39.0019 -118.1233 84° East 443 510 39,000 -49 Level Oakland Center
Fri 10:05:54 AM 39.0142 -117.9689 84° East 438 504 38,900 -537 Descending Oakland Center
Fri 10:06:56 AM 39.0267 -117.8150 84° East 435 501 37,900 -927 Descending Oakland Center
Fri 10:07:57 AM 39.0383 -117.6589 84° East 437 503 37,000 -443 Descending Oakland Center
Fri 10:08:58 AM 39.0492 -117.5006 85° East 443 510 37,000  Level Oakland Center
Fri 10:09:59 AM 39.0603 -117.3431 85° East 445 512 37,000  Level Oakland Center
Fri 10:11:00 AM 39.0714 -117.1881 85° East 437 503 37,000  Level Oakland Center
Fri 10:12:01 AM 39.0811 -117.0289 85° East 437 503 37,000  Level Oakland Center
Fri 10:13:02 AM 39.0914 -116.8736 85° East 435 501 37,000  Level Oakland Center
Fri 10:13:58 AM 39.1086 -116.7097 82° East 440 506 37,000  Level Salt Lake Center
Fri 10:14:59 AM 39.1317 -116.5614 79° East 442 509 37,000  Level Salt Lake Center
Fri 10:16:01 AM 39.1542 -116.4131 79° East 441 507 37,000  Level Salt Lake Center
Fri 10:17:02 AM 39.1786 -116.2394 80° East 442 509 37,000  Level Salt Lake Center
Fri 10:18:04 AM 39.1992 -116.0900 80° East 443 510 37,000  Level Salt Lake Center
Fri 10:19:05 AM 39.2236 -115.9167 80° East 442 509 37,000  Level Salt Lake Center
Fri 10:20:07 AM 39.2456 -115.7669 79° East 443 510 37,000  Level Salt Lake Center
Fri 10:21:08 AM 39.2667 -115.6161 80° East 446 513 37,000  Level Salt Lake Center
Fri 10:22:09 AM 39.2906 -115.4417 80° East 444 511 37,000  Level Salt Lake Center
Fri 10:23:11 AM 39.3114 -115.2919 80° East 445 512 37,000  Level Salt Lake Center
Fri 10:24:12 AM 39.3356 -115.1158 80° East 446 513 37,000  Level Salt Lake Center
Fri 10:25:14 AM 39.3542 -114.9664 81° East 442 509 37,000  Level Salt Lake Center
Fri 10:26:15 AM 39.3775 -114.7889 80° East 449 517 37,000  Level Salt Lake Center
Fri 10:27:17 AM 39.3967 -114.6369 81° East 450 518 37,000  Level Salt Lake Center
Fri 10:28:18 AM 39.4172 -114.4819 80° East 454 522 37,000  Level Salt Lake Center
Fri 10:29:20 AM 39.4406 -114.3131 80° East 456 525 37,000  Level Salt Lake Center
Fri 10:31:23 AM 39.4803 -113.9967 81° East 443 510 37,000  Level Salt Lake Center
Fri 10:32:25 AM 39.5003 -113.8397 81° East 442 509 37,000  Level Salt Lake Center
Fri 10:33:26 AM 39.5219 -113.6519 81° East 442 509 37,000  Level Salt Lake Center
Fri 10:34:28 AM 39.5408 -113.4964 81° East 439 505 37,000  Level Salt Lake Center
Fri 10:35:30 AM 39.5589 -113.3428 81° East 433 498 37,000  Level Salt Lake Center
Fri 10:36:31 AM 39.5775 -113.1886 81° East 433 498 37,000  Level Salt Lake Center
Fri 10:37:33 AM 39.5956 -113.0336 81° East 436 502 37,000  Level Salt Lake Center
Fri 10:38:35 AM 39.6131 -112.8767 82° East 439 505 37,000  Level Salt Lake Center
Fri 10:39:36 AM 39.6308 -112.7217 81° East 436 502 37,000  Level Salt Lake Center
Fri 10:40:38 AM 39.6508 -112.5461 82° East 437 503 37,000  Level Salt Lake Center
Fri 10:41:40 AM 39.6686 -112.3883 82° East 442 509 37,000  Level Salt Lake Center
Fri 10:42:42 AM 39.6850 -112.2325 82° East 440 506 37,000  Level Salt Lake Center
Fri 10:43:43 AM 39.7022 -112.0753 82° East 442 509 37,000  Level Salt Lake Center
Fri 10:44:45 AM 39.7225 -111.8878 82° East 441 507 37,000  Level Salt Lake Center
Fri 10:45:47 AM 39.7386 -111.7325 82° East 437 503 37,000  Level Salt Lake Center
Fri 10:46:49 AM 39.7542 -111.5778 83° East 435 501 37,000  Level Salt Lake Center
Fri 10:47:51 AM 39.7700 -111.4236 82° East 433 498 37,000  Level Salt Lake Center
Fri 10:48:52 AM 39.7856 -111.2653 83° East 435 501 37,000  Level Salt Lake Center
Fri 10:49:54 AM 39.8017 -111.0931 83° East 431 496 37,000  Level Salt Lake Center
Fri 10:50:56 AM 39.8169 -110.9425 82° East 438 504 37,000  Level Salt Lake Center
Fri 10:51:58 AM 39.8339 -110.7681 83° East 438 504 37,000 -145 Level Salt Lake Center
Fri 10:53:00 AM 39.8483 -110.6158 83° East 441 507 36,700 -629 Descending Salt Lake Center
Fri 10:54:02 AM 39.8608 -110.4667 84° East 436 502 35,700 -823 Descending Salt Lake Center
Fri 10:55:04 AM 39.8781 -110.2944 83° East 432 497 35,000 -339 Descending Salt Lake Center
Fri 10:56:06 AM 39.8900 -110.1478 84° East 427 491 35,000  Level Salt Lake Center
Fri 10:57:07 AM 39.9050 -109.9753 83° East 428 493 35,000  Level Salt Lake Center
Fri 10:58:09 AM 39.9186 -109.8278 83° East 430 495 35,000  Level Salt Lake Center
Fri 10:59:11 AM 39.9331 -109.6561 84° East 428 493 35,000  Level Salt Lake Center
Fri 10:59:37 AM 39.9367 -109.6047 85° East 430 495 35,000  Level Denver Center
Fri 11:00:39 AM 39.9525 -109.4333 83° East 427 491 35,000  Level Denver Center
Fri 11:01:41 AM 39.9639 -109.2856 84° East 427 491 35,000  Level Denver Center
Fri 11:02:43 AM 39.9783 -109.1119 84° East 429 494 35,000  Level Denver Center
Fri 11:03:19 AM 39.9844 -109.0392 84° East 431 496 35,000  Level Salt Lake Center
Fri 11:04:21 AM 39.9983 -108.8617 84° East 436 502 35,000  Level Salt Lake Center
Fri 11:04:47 AM 40.0022 -108.8086 85° East 439 505 35,000  Level Denver Center
Fri 11:05:49 AM 40.0161 -108.6286 84° East 443 510 35,000  Level Denver Center
Fri 11:06:51 AM 40.0283 -108.4731 84° East 447 514 35,000  Level Denver Center
Fri 11:07:53 AM 40.0403 -108.2917 85° East 447 514 35,000  Level Denver Center
Fri 11:08:55 AM 40.0517 -108.1358 84° East 449 517 35,000  Level Denver Center
Fri 11:09:57 AM 40.0650 -107.9539 84° East 451 519 35,000  Level Denver Center
Fri 11:10:59 AM 40.0919 -107.8022 77° East 447 514 35,000  Level Denver Center
Fri 11:12:01 AM 40.1272 -107.6275 75° East 447 514 35,000  Level Denver Center
Fri 11:13:03 AM 40.1583 -107.4769 75° East 447 514 35,000  Level Denver Center
Fri 11:14:05 AM 40.1883 -107.3258 75° East 449 517 35,000  Level Denver Center
Fri 11:15:07 AM 40.2219 -107.1489 76° East 449 517 35,000 -290 Level Denver Center
Fri 11:16:09 AM 40.2525 -106.9989 75° East 447 514 34,400 -774 Descending Denver Center
Fri 11:17:11 AM 40.2836 -106.8417 75° East 445 512 33,400 -968 Descending Denver Center
Fri 11:18:13 AM 40.3142 -106.6875 75° East 438 504 32,400 -1,016 Descending Denver Center
Fri 11:19:15 AM 40.3492 -106.5075 76° East 433 498 31,300 -1,016 Descending Denver Center
Fri 11:20:17 AM 40.3753 -106.3619 77° East 427 491 30,300 -960 Descending Denver Center
Fri 11:21:20 AM 40.4072 -106.1917 76° East 429 494 29,300 -1,008 Descending Denver Center
Fri 11:22:22 AM 40.4372 -106.0308 76° East 432 497 28,200 -1,210 Descending Denver Center
Fri 11:23:24 AM 40.4269 -105.8750 95° East 426 490 26,800 -1,694 Descending Denver Center
Fri 11:24:26 AM 40.4028 -105.7261 102° East 417 480 24,700 -1,839 Descending Denver Center
Fri 11:25:28 AM 40.3808 -105.5856 102° East 394 453 23,000 -1,500 Descending Denver Center
Fri 11:26:30 AM 40.3569 -105.4436 102° East 379 436 21,600 -1,452 Descending Denver Center
Fri 11:27:32 AM 40.2978 -105.3458 128° Southeast 340 391 20,000 -1,597 Descending Denver Center
Fri 11:28:34 AM 40.2347 -105.2447 129° Southeast 332 382 18,300 -1,452 Descending Denver Center
Fri 11:29:36 AM 40.1761 -105.1536 130° Southeast 328 377 17,000 -629 Descending Denver Center
Fri 11:30:38 AM 40.1128 -105.0550 130° Southeast 329 379 17,000 -677 Level Denver Center
Fri 11:31:40 AM 40.0547 -104.9647 130° Southeast 327 376 15,600 -1,500 Descending Denver Center
Fri 11:32:42 AM 39.9944 -104.8714 130° Southeast 316 364 13,900 -1,548 Descending Denver Center
Fri 11:33:44 AM 39.9306 -104.8064 142° Southeast 296 341 12,400 -1,258 Descending Denver Center
Fri 11:34:46 AM 39.8414 -104.8081 181° South 297 342 11,300 -774 Descending Denver Center
Fri 11:35:48 AM 39.7678 -104.8036 177° South 271 312 10,800 -726 Descending Denver Center
Fri 11:36:50 AM 39.7036 -104.7586 152° Southeast 243 280 9,800 -1,355 Descending Denver Center
Fri 11:37:52 AM 39.7000 -104.6936 94° East 212 244 8,000 -1,403 Descending Denver Center
Fri 11:38:54 AM 39.7528 -104.6608 26° Northeast 194 223 6,900 -919 Descending Denver Center
Fri 11:39:56 AM 39.7956 -104.6617 359° North 156 180 6,100 -774 Descending Denver Center
Fri 11:40:58 AM 39.8361 -104.6614 360° North 144 166 5,300 -774 Descending Denver Center
Fri 11:42:00 AM 39.8500 -104.6667 North  Level FlightAware Approximate
Fri 11:49:00 AM 39.8617 -104.6732 North  Level Estimated
Fri 11:50:00 AM 39.8617 -104.6732 North  Level Estimated
Fri 11:51:00 AM 39.8617 -104.6732 North  Level Estimated

Login

Don't have an account? Register now (free) for customized features, flight alerts, and more!